Salinas, CA (93912)

5:53 AM PDT on September 23, 2014 (GMT -0700)
University Park | Change Station
CLOSE
Current Station
Personal Weather Station
Location: Salinas, CA
Elevation: 52 ft
Nearby Weather Stations

Elev 52 ft 36.67 °N, 121.68 °W | Updated 7 minutes ago

Mostly Cloudy
Mostly Cloudy
58.5 °F
Feels Like 58.5 °F
N
2.2
Wind Variable Wind from South

Today
High -- | Low -- °F
--% Chance of Precip.
Yesterday
High -- | Low -- °F
Precip. -- in
6:55 AM 7:01 PM
Waning Crescent, 1% visible
Pressure 29.99 in
Visibility 10.0 miles
Clouds Overcast 700 ft
Dew Point 57 °F
Humidity 96%
Rainfall 0.00 in
Snow Depth 0 in , 0 in , 0 in
UV 0 out of 12
Pollen 3.80 out of 12
Air Quality Not available.
Flu Activity Not available.
METAR KSNS 231153Z AUTO 20003KT 10SM OVC007 16/14 A2996 RMK AO2 SLP153 T01560139 10172 20139 58006

More Conditions Fewer Conditions

Pressure 29.99 in
Visibility 10.0 miles
Clouds Overcast 700 ft
Dew Point 57 °F
Humidity 96%
Rainfall 0.00 in
Snow Depth 0 in , 0 in , 0 in
UV 0 out of 12
Pollen 3.80 out of 12
Air Quality Not available.
Flu Activity Not available.
METAR KSNS 231153Z AUTO 20003KT 10SM OVC007 16/14 A2996 RMK AO2 SLP153 T01560139 10172 20139 58006

More Conditions Fewer Conditions

10-Day Weather Forecast

Almanac

Astronomy

Sep. 23, 2014 Rise Set
Actual Time 6:55 AM PDT 7:01 PM PDT
Civil Twilight 6:29 AM PDT 7:27 PM PDT
Nautical Twilight 5:59 AM PDT 7:57 PM PDT
Astronomical Twilight 5:28 AM PDT 8:28 PM PDT
Moon 6:24 AM PDT 6:44 PM PDT
Length of Visible Light 12h 58m
Length of Day
12h 06m
Tomorrow will be 2m 20s shorter.
Waning Crescent, 1% of the Moon is Illuminated
Today
Waning Crescent
Sep 24
New
Oct 1
First Quarter
Oct 8
Full
Oct 15
Last Quarter

Today's Extremes

State Highs State Lows

Community

WunderPhotos

Upload Photos

1,755,662 photos uploaded!

WunderBlogs® & News

Nearby

Snow Depth

Station Depth Elevation
Leavitt Lake 0 in 9400 ft
Squaw Valley 0 in 8200 ft
Forestdale Creek 0 in 8029 ft
Poison Flat 0 in 7900 ft
Summit Meadow 1 in 9122 ft

Earthquake Activity

City Distance Mag. Time & Date
Yountville, California 116 miles 2.6 1:17 PM PDT
2014-09-21
Minimum magnitude displayed is 2.5.

Coastal Water Temperatures

Place Temperature
Monterey, CA 63.0 °F
Redwood City, CA 72.0 °F

Nearby Weather Stations